sensor_id;sensor_type;location;lat;lon;timestamp;temperature;humidity
15231;DHT22;32569;51.762;8.564;2022-07-23T00:00:20;16.30;99.90
15231;DHT22;32569;51.762;8.564;2022-07-23T00:02:47;16.30;99.90
15231;DHT22;32569;51.762;8.564;2022-07-23T00:05:14;16.30;99.90
15231;DHT22;32569;51.762;8.564;2022-07-23T00:07:41;16.30;99.90
15231;DHT22;32569;51.762;8.564;2022-07-23T00:10:08;16.30;99.90
15231;DHT22;32569;51.762;8.564;2022-07-23T00:12:35;16.20;99.90
15231;DHT22;32569;51.762;8.564;2022-07-23T00:15:03;16.30;99.90
15231;DHT22;32569;51.762;8.564;2022-07-23T00:17:31;16.30;99.90
15231;DHT22;32569;51.762;8.564;2022-07-23T00:19:58;16.50;99.90
15231;DHT22;32569;51.762;8.564;2022-07-23T00:22:24;16.50;99.90
15231;DHT22;32569;51.762;8.564;2022-07-23T00:24:53;16.40;99.90
15231;DHT22;32569;51.762;8.564;2022-07-23T00:27:19;16.40;99.90
15231;DHT22;32569;51.762;8.564;2022-07-23T00:29:46;16.40;99.90
15231;DHT22;32569;51.762;8.564;2022-07-23T00:32:12;16.40;99.90
15231;DHT22;32569;51.762;8.564;2022-07-23T00:34:40;16.30;99.90
15231;DHT22;32569;51.762;8.564;2022-07-23T00:37:07;16.30;99.90
15231;DHT22;32569;51.762;8.564;2022-07-23T00:39:34;16.40;99.90
15231;DHT22;32569;51.762;8.564;2022-07-23T00:42:00;16.50;99.90
15231;DHT22;32569;51.762;8.564;2022-07-23T00:44:27;16.50;99.90
15231;DHT22;32569;51.762;8.564;2022-07-23T00:46:55;16.50;99.90
15231;DHT22;32569;51.762;8.564;2022-07-23T00:49:24;16.60;99.90
15231;DHT22;32569;51.762;8.564;2022-07-23T00:51:52;16.70;99.90
15231;DHT22;32569;51.762;8.564;2022-07-23T00:54:21;16.70;99.90
15231;DHT22;32569;51.762;8.564;2022-07-23T00:56:48;16.60;99.90
15231;DHT22;32569;51.762;8.564;2022-07-23T00:59:15;16.70;99.90
15231;DHT22;32569;51.762;8.564;2022-07-23T01:01:42;16.60;99.90
15231;DHT22;32569;51.762;8.564;2022-07-23T01:04:09;16.60;99.90
15231;DHT22;32569;51.762;8.564;2022-07-23T01:06:37;16.60;99.90
15231;DHT22;32569;51.762;8.564;2022-07-23T01:09:07;16.60;99.90
15231;DHT22;32569;51.762;8.564;2022-07-23T01:11:34;16.60;99.90
15231;DHT22;32569;51.762;8.564;2022-07-23T01:14:11;16.60;99.90
15231;DHT22;32569;51.762;8.564;2022-07-23T01:16:38;16.60;99.90
15231;DHT22;32569;51.762;8.564;2022-07-23T01:19:05;16.60;99.90
15231;DHT22;32569;51.762;8.564;2022-07-23T01:21:34;16.50;99.90
15231;DHT22;32569;51.762;8.564;2022-07-23T01:24:04;16.50;99.90
15231;DHT22;32569;51.762;8.564;2022-07-23T01:26:30;16.60;99.90
15231;DHT22;32569;51.762;8.564;2022-07-23T01:28:57;16.60;99.90
15231;DHT22;32569;51.762;8.564;2022-07-23T01:31:24;16.60;99.90
15231;DHT22;32569;51.762;8.564;2022-07-23T01:33:51;16.60;99.90
15231;DHT22;32569;51.762;8.564;2022-07-23T01:36:17;16.50;99.90
15231;DHT22;32569;51.762;8.564;2022-07-23T01:38:44;16.40;99.90
15231;DHT22;32569;51.762;8.564;2022-07-23T01:41:12;16.30;99.90
15231;DHT22;32569;51.762;8.564;2022-07-23T01:43:38;16.10;99.90
15231;DHT22;32569;51.762;8.564;2022-07-23T01:46:05;16.00;99.90
15231;DHT22;32569;51.762;8.564;2022-07-23T01:48:32;15.80;99.90
15231;DHT22;32569;51.762;8.564;2022-07-23T01:50:59;15.80;99.90
15231;DHT22;32569;51.762;8.564;2022-07-23T01:53:25;15.70;99.90
15231;DHT22;32569;51.762;8.564;2022-07-23T01:55:52;15.40;99.90
15231;DHT22;32569;51.762;8.564;2022-07-23T01:58:20;15.30;99.90
15231;DHT22;32569;51.762;8.564;2022-07-23T02:00:46;15.20;99.90
15231;DHT22;32569;51.762;8.564;2022-07-23T02:03:13;15.20;99.90
15231;DHT22;32569;51.762;8.564;2022-07-23T02:05:39;15.30;99.90
15231;DHT22;32569;51.762;8.564;2022-07-23T02:08:06;15.40;99.90
15231;DHT22;32569;51.762;8.564;2022-07-23T02:10:33;15.40;99.90
15231;DHT22;32569;51.762;8.564;2022-07-23T02:12:59;15.40;99.90
15231;DHT22;32569;51.762;8.564;2022-07-23T02:15:27;15.30;99.90
15231;DHT22;32569;51.762;8.564;2022-07-23T02:17:55;15.40;99.90
15231;DHT22;32569;51.762;8.564;2022-07-23T02:20:22;15.40;99.90
15231;DHT22;32569;51.762;8.564;2022-07-23T02:22:49;15.40;99.90
15231;DHT22;32569;51.762;8.564;2022-07-23T02:25:16;15.40;99.90
15231;DHT22;32569;51.762;8.564;2022-07-23T02:27:42;15.50;99.90
15231;DHT22;32569;51.762;8.564;2022-07-23T02:30:10;15.40;99.90
15231;DHT22;32569;51.762;8.564;2022-07-23T02:32:38;15.40;99.90
15231;DHT22;32569;51.762;8.564;2022-07-23T02:35:07;15.40;99.90
15231;DHT22;32569;51.762;8.564;2022-07-23T02:37:34;15.40;99.90
15231;DHT22;32569;51.762;8.564;2022-07-23T02:40:00;15.30;99.90
15231;DHT22;32569;51.762;8.564;2022-07-23T02:42:27;15.20;99.90
15231;DHT22;32569;51.762;8.564;2022-07-23T02:44:53;15.20;99.90
15231;DHT22;32569;51.762;8.564;2022-07-23T02:47:20;15.20;99.90
15231;DHT22;32569;51.762;8.564;2022-07-23T02:49:48;15.20;99.90
15231;DHT22;32569;51.762;8.564;2022-07-23T02:52:14;15.20;99.90
15231;DHT22;32569;51.762;8.564;2022-07-23T02:54:41;15.30;99.90
15231;DHT22;32569;51.762;8.564;2022-07-23T02:57:08;15.30;99.90
15231;DHT22;32569;51.762;8.564;2022-07-23T02:59:34;15.30;99.90
15231;DHT22;32569;51.762;8.564;2022-07-23T03:02:01;15.20;99.90
15231;DHT22;32569;51.762;8.564;2022-07-23T03:04:27;15.10;99.90
15231;DHT22;32569;51.762;8.564;2022-07-23T03:06:55;15.20;99.90
15231;DHT22;32569;51.762;8.564;2022-07-23T03:09:22;15.10;99.90
15231;DHT22;32569;51.762;8.564;2022-07-23T03:11:48;15.10;99.90
15231;DHT22;32569;51.762;8.564;2022-07-23T03:14:15;15.10;99.90
15231;DHT22;32569;51.762;8.564;2022-07-23T03:16:42;15.10;99.90
15231;DHT22;32569;51.762;8.564;2022-07-23T03:19:09;15.10;99.90
15231;DHT22;32569;51.762;8.564;2022-07-23T03:21:35;15.00;99.90
15231;DHT22;32569;51.762;8.564;2022-07-23T03:24:07;15.10;99.90
15231;DHT22;32569;51.762;8.564;2022-07-23T03:26:33;15.00;99.90
15231;DHT22;32569;51.762;8.564;2022-07-23T03:29:00;15.10;99.90
15231;DHT22;32569;51.762;8.564;2022-07-23T03:31:28;15.10;99.90
15231;DHT22;32569;51.762;8.564;2022-07-23T03:33:55;15.10;99.90
15231;DHT22;32569;51.762;8.564;2022-07-23T03:36:22;15.20;99.90
15231;DHT22;32569;51.762;8.564;2022-07-23T03:38:48;15.20;99.90
15231;DHT22;32569;51.762;8.564;2022-07-23T03:41:17;15.20;99.90
15231;DHT22;32569;51.762;8.564;2022-07-23T03:43:44;15.30;99.90
15231;DHT22;32569;51.762;8.564;2022-07-23T03:46:10;15.20;99.90
15231;DHT22;32569;51.762;8.564;2022-07-23T03:48:37;15.20;99.90
15231;DHT22;32569;51.762;8.564;2022-07-23T03:51:04;15.20;99.90
15231;DHT22;32569;51.762;8.564;2022-07-23T03:53:31;15.20;99.90
15231;DHT22;32569;51.762;8.564;2022-07-23T03:55:57;15.20;99.90
15231;DHT22;32569;51.762;8.564;2022-07-23T03:58:25;15.20;99.90
15231;DHT22;32569;51.762;8.564;2022-07-23T04:00:52;15.20;99.90
15231;DHT22;32569;51.762;8.564;2022-07-23T04:03:18;15.20;99.90
15231;DHT22;32569;51.762;8.564;2022-07-23T04:05:45;15.10;99.90
15231;DHT22;32569;51.762;8.564;2022-07-23T04:08:12;15.10;99.90
15231;DHT22;32569;51.762;8.564;2022-07-23T04:10:38;15.10;99.90
15231;DHT22;32569;51.762;8.564;2022-07-23T04:13:05;15.20;99.90
15231;DHT22;32569;51.762;8.564;2022-07-23T04:15:33;15.20;99.90
15231;DHT22;32569;51.762;8.564;2022-07-23T04:17:59;15.20;99.90
15231;DHT22;32569;51.762;8.564;2022-07-23T04:20:26;15.30;99.90
15231;DHT22;32569;51.762;8.564;2022-07-23T04:22:52;15.30;99.90
15231;DHT22;32569;51.762;8.564;2022-07-23T04:25:19;15.30;99.90
15231;DHT22;32569;51.762;8.564;2022-07-23T04:27:46;15.30;99.90
15231;DHT22;32569;51.762;8.564;2022-07-23T04:30:12;15.30;99.90
15231;DHT22;32569;51.762;8.564;2022-07-23T04:32:41;15.40;99.90
15231;DHT22;32569;51.762;8.564;2022-07-23T04:35:08;15.40;99.90
15231;DHT22;32569;51.762;8.564;2022-07-23T04:37:34;15.50;99.90
15231;DHT22;32569;51.762;8.564;2022-07-23T04:40:01;15.50;99.90
15231;DHT22;32569;51.762;8.564;2022-07-23T04:42:28;15.50;99.90
15231;DHT22;32569;51.762;8.564;2022-07-23T04:44:55;15.50;99.90
15231;DHT22;32569;51.762;8.564;2022-07-23T04:47:21;15.50;99.90
15231;DHT22;32569;51.762;8.564;2022-07-23T04:49:49;15.50;99.90
15231;DHT22;32569;51.762;8.564;2022-07-23T04:52:16;15.60;99.90
15231;DHT22;32569;51.762;8.564;2022-07-23T04:54:42;15.80;99.90
15231;DHT22;32569;51.762;8.564;2022-07-23T04:57:09;16.20;99.90
15231;DHT22;32569;51.762;8.564;2022-07-23T04:59:35;16.60;99.90
15231;DHT22;32569;51.762;8.564;2022-07-23T05:02:02;16.80;99.90
15231;DHT22;32569;51.762;8.564;2022-07-23T05:04:29;17.10;99.90
15231;DHT22;32569;51.762;8.564;2022-07-23T05:06:57;17.30;99.90
15231;DHT22;32569;51.762;8.564;2022-07-23T05:09:24;17.60;99.90
15231;DHT22;32569;51.762;8.564;2022-07-23T05:11:51;17.90;99.90
15231;DHT22;32569;51.762;8.564;2022-07-23T05:14:18;18.10;99.90
15231;DHT22;32569;51.762;8.564;2022-07-23T05:16:44;18.20;99.90
15231;DHT22;32569;51.762;8.564;2022-07-23T05:19:11;18.50;99.90
15231;DHT22;32569;51.762;8.564;2022-07-23T05:21:37;18.80;99.90
15231;DHT22;32569;51.762;8.564;2022-07-23T05:24:06;19.00;99.90
15231;DHT22;32569;51.762;8.564;2022-07-23T05:26:33;19.10;99.90
15231;DHT22;32569;51.762;8.564;2022-07-23T05:29:00;19.30;99.90
15231;DHT22;32569;51.762;8.564;2022-07-23T05:31:26;19.30;99.90
15231;DHT22;32569;51.762;8.564;2022-07-23T05:33:53;19.60;99.90
15231;DHT22;32569;51.762;8.564;2022-07-23T05:36:20;19.50;99.90
15231;DHT22;32569;51.762;8.564;2022-07-23T05:38:47;19.70;99.90
15231;DHT22;32569;51.762;8.564;2022-07-23T05:41:15;19.60;99.90
15231;DHT22;32569;51.762;8.564;2022-07-23T05:43:41;19.70;99.90
15231;DHT22;32569;51.762;8.564;2022-07-23T05:46:08;19.90;99.90
15231;DHT22;32569;51.762;8.564;2022-07-23T05:48:34;19.90;99.90
15231;DHT22;32569;51.762;8.564;2022-07-23T05:51:01;19.90;99.90
15231;DHT22;32569;51.762;8.564;2022-07-23T05:53:28;20.30;99.90
15231;DHT22;32569;51.762;8.564;2022-07-23T05:55:55;20.50;99.90
15231;DHT22;32569;51.762;8.564;2022-07-23T05:58:23;20.60;99.90
15231;DHT22;32569;51.762;8.564;2022-07-23T06:00:50;20.60;99.90
15231;DHT22;32569;51.762;8.564;2022-07-23T06:03:16;20.60;99.90
15231;DHT22;32569;51.762;8.564;2022-07-23T06:05:43;20.50;99.90
15231;DHT22;32569;51.762;8.564;2022-07-23T06:08:10;20.70;99.90
15231;DHT22;32569;51.762;8.564;2022-07-23T06:10:36;20.40;99.90
15231;DHT22;32569;51.762;8.564;2022-07-23T06:13:03;20.40;99.90
15231;DHT22;32569;51.762;8.564;2022-07-23T06:15:31;20.30;99.90
15231;DHT22;32569;51.762;8.564;2022-07-23T06:17:57;20.10;99.90
15231;DHT22;32569;51.762;8.564;2022-07-23T06:20:24;19.80;99.90
15231;DHT22;32569;51.762;8.564;2022-07-23T06:22:51;19.90;99.90
15231;DHT22;32569;51.762;8.564;2022-07-23T06:25:17;20.00;99.90
15231;DHT22;32569;51.762;8.564;2022-07-23T06:27:45;19.90;99.90
15231;DHT22;32569;51.762;8.564;2022-07-23T06:30:13;20.10;99.90
15231;DHT22;32569;51.762;8.564;2022-07-23T06:32:42;20.00;99.90
15231;DHT22;32569;51.762;8.564;2022-07-23T06:35:09;19.90;99.90
15231;DHT22;32569;51.762;8.564;2022-07-23T06:37:35;19.70;99.90
15231;DHT22;32569;51.762;8.564;2022-07-23T06:40:03;19.80;99.90
15231;DHT22;32569;51.762;8.564;2022-07-23T06:42:29;19.80;99.90
15231;DHT22;32569;51.762;8.564;2022-07-23T06:44:56;19.50;99.90
15231;DHT22;32569;51.762;8.564;2022-07-23T06:47:22;19.10;99.90
15231;DHT22;32569;51.762;8.564;2022-07-23T06:49:50;19.00;99.90
15231;DHT22;32569;51.762;8.564;2022-07-23T06:52:17;18.70;99.90
15231;DHT22;32569;51.762;8.564;2022-07-23T06:54:44;18.80;99.90
15231;DHT22;32569;51.762;8.564;2022-07-23T06:57:10;18.70;99.90
15231;DHT22;32569;51.762;8.564;2022-07-23T06:59:37;18.60;99.90
15231;DHT22;32569;51.762;8.564;2022-07-23T07:02:06;18.40;99.90
15231;DHT22;32569;51.762;8.564;2022-07-23T07:04:32;18.20;99.90
15231;DHT22;32569;51.762;8.564;2022-07-23T07:07:01;18.20;99.90
15231;DHT22;32569;51.762;8.564;2022-07-23T07:09:27;18.30;99.90
15231;DHT22;32569;51.762;8.564;2022-07-23T07:11:54;18.40;99.90
15231;DHT22;32569;51.762;8.564;2022-07-23T07:14:22;18.30;99.90
15231;DHT22;32569;51.762;8.564;2022-07-23T07:16:48;18.30;99.90
15231;DHT22;32569;51.762;8.564;2022-07-23T07:19:15;18.50;99.90
15231;DHT22;32569;51.762;8.564;2022-07-23T07:21:42;18.70;99.90
15231;DHT22;32569;51.762;8.564;2022-07-23T07:24:10;18.80;99.90
15231;DHT22;32569;51.762;8.564;2022-07-23T07:26:36;18.70;99.90
15231;DHT22;32569;51.762;8.564;2022-07-23T07:29:04;18.80;99.90
15231;DHT22;32569;51.762;8.564;2022-07-23T07:31:30;18.70;99.90
15231;DHT22;32569;51.762;8.564;2022-07-23T07:33:58;18.70;99.90
15231;DHT22;32569;51.762;8.564;2022-07-23T07:36:25;18.80;99.90
15231;DHT22;32569;51.762;8.564;2022-07-23T07:38:51;18.80;99.90
15231;DHT22;32569;51.762;8.564;2022-07-23T07:41:19;19.00;99.90
15231;DHT22;32569;51.762;8.564;2022-07-23T07:43:49;18.90;99.90
15231;DHT22;32569;51.762;8.564;2022-07-23T07:46:16;19.00;99.90
15231;DHT22;32569;51.762;8.564;2022-07-23T07:48:42;19.10;99.90
15231;DHT22;32569;51.762;8.564;2022-07-23T07:51:09;19.10;99.90
15231;DHT22;32569;51.762;8.564;2022-07-23T07:53:36;19.10;99.90
15231;DHT22;32569;51.762;8.564;2022-07-23T07:56:03;19.10;99.90
15231;DHT22;32569;51.762;8.564;2022-07-23T07:58:31;19.20;99.90
15231;DHT22;32569;51.762;8.564;2022-07-23T08:00:57;19.30;99.90
15231;DHT22;32569;51.762;8.564;2022-07-23T08:03:24;19.40;99.90
15231;DHT22;32569;51.762;8.564;2022-07-23T08:05:50;19.40;99.90
15231;DHT22;32569;51.762;8.564;2022-07-23T08:08:17;19.20;99.90
15231;DHT22;32569;51.762;8.564;2022-07-23T08:10:44;19.10;99.90
15231;DHT22;32569;51.762;8.564;2022-07-23T08:13:13;19.20;99.90
15231;DHT22;32569;51.762;8.564;2022-07-23T08:15:41;19.30;99.90
15231;DHT22;32569;51.762;8.564;2022-07-23T08:18:08;19.20;99.90
15231;DHT22;32569;51.762;8.564;2022-07-23T08:20:35;19.30;99.90
15231;DHT22;32569;51.762;8.564;2022-07-23T08:23:03;19.30;99.90
15231;DHT22;32569;51.762;8.564;2022-07-23T08:25:32;19.10;99.90
15231;DHT22;32569;51.762;8.564;2022-07-23T08:28:00;19.30;99.90
15231;DHT22;32569;51.762;8.564;2022-07-23T08:30:29;19.20;99.90
15231;DHT22;32569;51.762;8.564;2022-07-23T08:32:59;19.10;99.90
15231;DHT22;32569;51.762;8.564;2022-07-23T08:35:27;19.20;99.90
15231;DHT22;32569;51.762;8.564;2022-07-23T08:37:54;19.30;99.90
15231;DHT22;32569;51.762;8.564;2022-07-23T08:40:21;19.30;99.90
15231;DHT22;32569;51.762;8.564;2022-07-23T08:42:49;19.50;99.90
15231;DHT22;32569;51.762;8.564;2022-07-23T08:45:17;19.60;99.90
15231;DHT22;32569;51.762;8.564;2022-07-23T08:47:47;19.50;99.90
15231;DHT22;32569;51.762;8.564;2022-07-23T08:50:15;19.50;99.90
15231;DHT22;32569;51.762;8.564;2022-07-23T08:52:43;19.40;99.90
15231;DHT22;32569;51.762;8.564;2022-07-23T08:55:10;19.30;99.90
15231;DHT22;32569;51.762;8.564;2022-07-23T08:57:36;19.30;99.90
15231;DHT22;32569;51.762;8.564;2022-07-23T09:00:04;19.30;99.90
15231;DHT22;32569;51.762;8.564;2022-07-23T09:02:38;19.20;99.90
15231;DHT22;32569;51.762;8.564;2022-07-23T09:05:06;19.20;99.90
15231;DHT22;32569;51.762;8.564;2022-07-23T09:07:34;19.30;99.90
15231;DHT22;32569;51.762;8.564;2022-07-23T09:10:08;19.30;99.90
15231;DHT22;32569;51.762;8.564;2022-07-23T09:12:35;19.20;99.90
15231;DHT22;32569;51.762;8.564;2022-07-23T09:15:07;19.30;99.90
15231;DHT22;32569;51.762;8.564;2022-07-23T09:17:39;19.50;99.90
15231;DHT22;32569;51.762;8.564;2022-07-23T09:20:11;19.80;99.90
15231;DHT22;32569;51.762;8.564;2022-07-23T09:22:40;20.20;99.90
15231;DHT22;32569;51.762;8.564;2022-07-23T09:25:13;20.30;99.90
15231;DHT22;32569;51.762;8.564;2022-07-23T09:27:49;20.30;99.90
15231;DHT22;32569;51.762;8.564;2022-07-23T09:30:16;20.30;99.90
15231;DHT22;32569;51.762;8.564;2022-07-23T09:32:43;20.30;99.90
15231;DHT22;32569;51.762;8.564;2022-07-23T09:35:09;19.90;99.90
15231;DHT22;32569;51.762;8.564;2022-07-23T09:37:36;19.70;99.90
15231;DHT22;32569;51.762;8.564;2022-07-23T09:40:07;19.60;99.90
15231;DHT22;32569;51.762;8.564;2022-07-23T09:42:35;19.60;99.90
15231;DHT22;32569;51.762;8.564;2022-07-23T09:45:02;19.50;99.90
15231;DHT22;32569;51.762;8.564;2022-07-23T09:47:30;19.50;99.90
15231;DHT22;32569;51.762;8.564;2022-07-23T09:49:59;19.50;99.90
15231;DHT22;32569;51.762;8.564;2022-07-23T09:52:27;19.60;99.90
15231;DHT22;32569;51.762;8.564;2022-07-23T09:54:58;19.80;99.90
15231;DHT22;32569;51.762;8.564;2022-07-23T09:57:27;20.00;99.90
15231;DHT22;32569;51.762;8.564;2022-07-23T09:59:57;20.20;99.90
15231;DHT22;32569;51.762;8.564;2022-07-23T10:02:25;20.20;99.90
15231;DHT22;32569;51.762;8.564;2022-07-23T10:04:53;20.50;99.90
15231;DHT22;32569;51.762;8.564;2022-07-23T10:07:21;20.60;99.90
15231;DHT22;32569;51.762;8.564;2022-07-23T10:09:50;20.80;99.90
15231;DHT22;32569;51.762;8.564;2022-07-23T10:12:18;20.70;99.90
15231;DHT22;32569;51.762;8.564;2022-07-23T10:14:54;20.40;99.90
15231;DHT22;32569;51.762;8.564;2022-07-23T10:17:22;20.20;99.90
15231;DHT22;32569;51.762;8.564;2022-07-23T10:19:49;20.00;99.90
15231;DHT22;32569;51.762;8.564;2022-07-23T10:22:25;20.10;99.90
15231;DHT22;32569;51.762;8.564;2022-07-23T10:25:10;20.30;99.90
15231;DHT22;32569;51.762;8.564;2022-07-23T10:27:47;20.50;99.90
15231;DHT22;32569;51.762;8.564;2022-07-23T10:30:20;20.70;99.90
15231;DHT22;32569;51.762;8.564;2022-07-23T10:32:56;20.70;99.90
15231;DHT22;32569;51.762;8.564;2022-07-23T10:35:33;20.60;99.90
15231;DHT22;32569;51.762;8.564;2022-07-23T10:38:11;20.40;99.90
15231;DHT22;32569;51.762;8.564;2022-07-23T10:40:53;20.20;99.90
15231;DHT22;32569;51.762;8.564;2022-07-23T10:43:20;20.20;99.90
15231;DHT22;32569;51.762;8.564;2022-07-23T10:45:49;20.50;99.90
15231;DHT22;32569;51.762;8.564;2022-07-23T10:48:18;20.80;99.90
15231;DHT22;32569;51.762;8.564;2022-07-23T10:51:06;21.00;99.90
15231;DHT22;32569;51.762;8.564;2022-07-23T10:53:55;21.30;99.90
15231;DHT22;32569;51.762;8.564;2022-07-23T10:59:31;21.20;99.90
15231;DHT22;32569;51.762;8.564;2022-07-23T11:02:23;20.80;99.90
15231;DHT22;32569;51.762;8.564;2022-07-23T11:04:52;20.70;99.90
15231;DHT22;32569;51.762;8.564;2022-07-23T11:07:19;20.60;99.90
15231;DHT22;32569;51.762;8.564;2022-07-23T11:09:46;20.50;99.90
15231;DHT22;32569;51.762;8.564;2022-07-23T11:12:32;20.60;99.90
15231;DHT22;32569;51.762;8.564;2022-07-23T11:15:03;20.70;99.90
15231;DHT22;32569;51.762;8.564;2022-07-23T11:17:32;20.90;99.90
15231;DHT22;32569;51.762;8.564;2022-07-23T11:20:20;20.90;99.70
15231;DHT22;32569;51.762;8.564;2022-07-23T11:22:49;20.80;99.90
15231;DHT22;32569;51.762;8.564;2022-07-23T11:25:31;20.90;99.90
15231;DHT22;32569;51.762;8.564;2022-07-23T11:28:09;21.00;99.90
15231;DHT22;32569;51.762;8.564;2022-07-23T11:30:39;20.90;99.90
15231;DHT22;32569;51.762;8.564;2022-07-23T11:33:20;20.90;99.90
15231;DHT22;32569;51.762;8.564;2022-07-23T11:35:50;21.00;99.90
15231;DHT22;32569;51.762;8.564;2022-07-23T11:38:25;21.00;99.90
15231;DHT22;32569;51.762;8.564;2022-07-23T11:40:53;21.10;99.90
15231;DHT22;32569;51.762;8.564;2022-07-23T11:43:22;21.20;99.90
15231;DHT22;32569;51.762;8.564;2022-07-23T11:45:50;21.20;99.90
15231;DHT22;32569;51.762;8.564;2022-07-23T11:48:20;21.30;99.90
15231;DHT22;32569;51.762;8.564;2022-07-23T11:50:47;21.30;99.10
15231;DHT22;32569;51.762;8.564;2022-07-23T11:53:22;21.30;99.50
15231;DHT22;32569;51.762;8.564;2022-07-23T11:55:49;21.30;99.90
15231;DHT22;32569;51.762;8.564;2022-07-23T11:58:16;21.30;99.70
15231;DHT22;32569;51.762;8.564;2022-07-23T12:00:43;21.30;99.90
15231;DHT22;32569;51.762;8.564;2022-07-23T12:03:09;21.10;99.90
15231;DHT22;32569;51.762;8.564;2022-07-23T12:05:38;21.10;99.90
15231;DHT22;32569;51.762;8.564;2022-07-23T12:08:07;21.30;99.90
15231;DHT22;32569;51.762;8.564;2022-07-23T12:10:36;21.30;99.80
15231;DHT22;32569;51.762;8.564;2022-07-23T12:13:04;21.50;98.80
15231;DHT22;32569;51.762;8.564;2022-07-23T12:15:33;21.50;98.70
15231;DHT22;32569;51.762;8.564;2022-07-23T12:18:04;21.60;99.20
15231;DHT22;32569;51.762;8.564;2022-07-23T12:20:34;21.70;99.20
15231;DHT22;32569;51.762;8.564;2022-07-23T12:23:04;21.70;98.40
15231;DHT22;32569;51.762;8.564;2022-07-23T12:25:33;21.60;98.30
15231;DHT22;32569;51.762;8.564;2022-07-23T12:28:03;21.70;99.20
15231;DHT22;32569;51.762;8.564;2022-07-23T12:30:32;21.80;98.90
15231;DHT22;32569;51.762;8.564;2022-07-23T12:32:59;22.00;99.00
15231;DHT22;32569;51.762;8.564;2022-07-23T12:35:32;22.30;98.40
15231;DHT22;32569;51.762;8.564;2022-07-23T12:38:01;22.20;98.10
15231;DHT22;32569;51.762;8.564;2022-07-23T12:40:30;22.10;97.90
15231;DHT22;32569;51.762;8.564;2022-07-23T12:43:00;22.10;97.80
15231;DHT22;32569;51.762;8.564;2022-07-23T12:45:29;22.00;97.90
15231;DHT22;32569;51.762;8.564;2022-07-23T12:48:08;22.00;98.10
15231;DHT22;32569;51.762;8.564;2022-07-23T12:50:37;22.10;98.50
15231;DHT22;32569;51.762;8.564;2022-07-23T12:53:05;22.20;98.20
15231;DHT22;32569;51.762;8.564;2022-07-23T12:55:34;22.40;98.10
15231;DHT22;32569;51.762;8.564;2022-07-23T12:58:09;22.40;97.70
15231;DHT22;32569;51.762;8.564;2022-07-23T13:01:06;22.40;98.10
15231;DHT22;32569;51.762;8.564;2022-07-23T13:03:35;22.40;97.90
15231;DHT22;32569;51.762;8.564;2022-07-23T13:06:04;22.40;98.50
15231;DHT22;32569;51.762;8.564;2022-07-23T13:08:32;22.50;98.90
15231;DHT22;32569;51.762;8.564;2022-07-23T13:11:01;22.70;97.80
15231;DHT22;32569;51.762;8.564;2022-07-23T13:13:30;22.70;97.30
15231;DHT22;32569;51.762;8.564;2022-07-23T13:15:58;22.70;97.20
15231;DHT22;32569;51.762;8.564;2022-07-23T13:18:26;22.80;97.80
15231;DHT22;32569;51.762;8.564;2022-07-23T13:20:53;22.90;97.40
15231;DHT22;32569;51.762;8.564;2022-07-23T13:23:21;22.90;97.60
15231;DHT22;32569;51.762;8.564;2022-07-23T13:25:48;23.00;97.90
15231;DHT22;32569;51.762;8.564;2022-07-23T13:28:18;22.90;97.20
15231;DHT22;32569;51.762;8.564;2022-07-23T13:30:45;22.90;98.00
15231;DHT22;32569;51.762;8.564;2022-07-23T13:33:13;22.70;97.80
15231;DHT22;32569;51.762;8.564;2022-07-23T13:35:40;22.90;97.60
15231;DHT22;32569;51.762;8.564;2022-07-23T13:38:06;23.00;97.70
15231;DHT22;32569;51.762;8.564;2022-07-23T13:40:35;23.10;97.00
15231;DHT22;32569;51.762;8.564;2022-07-23T13:43:01;23.10;97.00
15231;DHT22;32569;51.762;8.564;2022-07-23T13:45:29;23.00;97.40
15231;DHT22;32569;51.762;8.564;2022-07-23T13:47:56;22.90;97.60
15231;DHT22;32569;51.762;8.564;2022-07-23T13:50:23;22.90;97.00
15231;DHT22;32569;51.762;8.564;2022-07-23T13:52:50;22.60;97.00
15231;DHT22;32569;51.762;8.564;2022-07-23T13:55:16;22.60;98.10
15231;DHT22;32569;51.762;8.564;2022-07-23T13:57:43;22.60;97.70
15231;DHT22;32569;51.762;8.564;2022-07-23T14:00:10;22.60;96.90
15231;DHT22;32569;51.762;8.564;2022-07-23T14:02:40;22.50;97.10
15231;DHT22;32569;51.762;8.564;2022-07-23T14:05:09;22.50;96.70
15231;DHT22;32569;51.762;8.564;2022-07-23T14:07:37;22.70;96.70
15231;DHT22;32569;51.762;8.564;2022-07-23T14:10:05;22.70;96.60
15231;DHT22;32569;51.762;8.564;2022-07-23T14:12:32;22.90;96.60
15231;DHT22;32569;51.762;8.564;2022-07-23T14:14:59;23.00;96.00
15231;DHT22;32569;51.762;8.564;2022-07-23T14:17:26;23.00;96.20
15231;DHT22;32569;51.762;8.564;2022-07-23T14:19:54;23.10;97.30
15231;DHT22;32569;51.762;8.564;2022-07-23T14:22:21;23.20;96.10
15231;DHT22;32569;51.762;8.564;2022-07-23T14:24:48;23.20;95.60
15231;DHT22;32569;51.762;8.564;2022-07-23T14:27:14;23.30;96.30
15231;DHT22;32569;51.762;8.564;2022-07-23T14:29:41;23.20;95.70
15231;DHT22;32569;51.762;8.564;2022-07-23T14:32:08;23.20;96.30
15231;DHT22;32569;51.762;8.564;2022-07-23T14:34:35;23.10;95.00
15231;DHT22;32569;51.762;8.564;2022-07-23T14:37:03;22.90;95.30
15231;DHT22;32569;51.762;8.564;2022-07-23T14:39:29;23.00;95.80
15231;DHT22;32569;51.762;8.564;2022-07-23T14:41:56;23.00;95.40
15231;DHT22;32569;51.762;8.564;2022-07-23T14:44:23;23.20;95.50
15231;DHT22;32569;51.762;8.564;2022-07-23T14:46:50;23.10;95.00
15231;DHT22;32569;51.762;8.564;2022-07-23T14:49:17;22.90;95.10
15231;DHT22;32569;51.762;8.564;2022-07-23T14:51:43;23.00;95.60
15231;DHT22;32569;51.762;8.564;2022-07-23T14:54:11;23.10;95.20
15231;DHT22;32569;51.762;8.564;2022-07-23T14:56:39;23.30;95.70
15231;DHT22;32569;51.762;8.564;2022-07-23T14:59:06;23.30;95.50
15231;DHT22;32569;51.762;8.564;2022-07-23T15:01:34;23.40;95.40
15231;DHT22;32569;51.762;8.564;2022-07-23T15:04:01;23.40;95.30
15231;DHT22;32569;51.762;8.564;2022-07-23T15:06:28;23.30;95.40
15231;DHT22;32569;51.762;8.564;2022-07-23T15:08:55;23.40;95.40
15231;DHT22;32569;51.762;8.564;2022-07-23T15:11:23;23.30;94.80
15231;DHT22;32569;51.762;8.564;2022-07-23T15:13:50;23.30;94.60
15231;DHT22;32569;51.762;8.564;2022-07-23T15:16:17;23.40;94.80
15231;DHT22;32569;51.762;8.564;2022-07-23T15:18:43;23.50;94.80
15231;DHT22;32569;51.762;8.564;2022-07-23T15:21:10;23.60;94.40
15231;DHT22;32569;51.762;8.564;2022-07-23T15:23:37;23.60;94.80
15231;DHT22;32569;51.762;8.564;2022-07-23T15:26:06;23.60;94.70
15231;DHT22;32569;51.762;8.564;2022-07-23T15:28:34;23.60;94.30
15231;DHT22;32569;51.762;8.564;2022-07-23T15:31:02;23.40;94.70
15231;DHT22;32569;51.762;8.564;2022-07-23T15:33:29;23.50;95.20
15231;DHT22;32569;51.762;8.564;2022-07-23T15:35:56;23.50;94.80
15231;DHT22;32569;51.762;8.564;2022-07-23T15:38:23;23.60;94.80